Data for 10/28/2010

Time Sea-Level Adjusted Pressure Absolute Pressure Temperature Relative Humidity Dew Point   
(mb) (inHg) (mb) (inHg) (C) (F) (%) (C) (F)
00:05 1026 30.3 855 25.25 -0.7 30.7 62 -7.2 19
00:10 1026 30.3 855 25.25 -0.9 30.3 63 -7.2 19
00:15 1026 30.3 855 25.25 -1.2 29.9 64 -7.2 19
00:20 1026 30.3 855 25.25 -1.4 29.5 64 -7.3 18.9
00:25 1026 30.3 855 25.25 -1.4 29.4 64 -7.4 18.7
00:30 1026 30.3 855 25.25 -1.3 29.7 63 -7.4 18.6
00:35 1026 30.3 855 25.25 -1.1 30 61 -7.6 18.3
00:40 1026 30.3 855 25.25 -0.9 30.4 61 -7.4 18.7
00:45 1026 30.3 855 25.25 -0.9 30.4 61 -7.4 18.6
00:50 1026 30.3 855 25.25 -1 30.3 62 -7.4 18.6
00:55 1025 30.27 855 25.25 -1 30.2 62 -7.4 18.7
01:00 1025 30.27 855 25.25 -1.1 30.1 62 -7.4 18.7
01:05 1025 30.27 855 25.25 -1 30.1 61 -7.6 18.4
01:10 1025 30.27 855 25.25 -1 30.3 62 -7.4 18.6
01:15 1026 30.3 855 25.25 -1 30.2 62 -7.3 18.8
01:20 1026 30.3 855 25.25 -1.2 29.8 64 -7.2 19.1
01:25 1025 30.27 855 25.25 -1.4 29.5 64 -7.3 18.9
01:30 1025 30.27 855 25.25 -1.4 29.5 65 -7.2 19
01:35 1025 30.27 855 25.25 -1.2 29.8 62 -7.5 18.5
01:40 1025 30.27 855 25.25 -1.2 29.9 63 -7.4 18.7
01:45 1025 30.27 854 25.22 -1 30.2 61 -7.6 18.4
01:50 1025 30.27 854 25.22 -0.9 30.3 62 -7.4 18.7
01:55 1025 30.27 854 25.22 -1 30.3 61 -7.5 18.5
02:00 1025 30.27 854 25.22 -1 30.3 62 -7.4 18.7
02:05 1025 30.27 854 25.22 -1.1 30.1 62 -7.4 18.7
02:10 1025 30.27 854 25.22 -1.1 30.1 62 -7.5 18.6
02:15 1025 30.27 854 25.22 -1 30.1 62 -7.5 18.5
02:20 1025 30.27 854 25.22 -1 30.3 61 -7.5 18.5
02:25 1025 30.27 854 25.22 -0.9 30.4 61 -7.5 18.5
02:30 1025 30.27 854 25.22 -0.8 30.6 60 -7.5 18.4
02:35 1025 30.27 854 25.22 -0.6 30.9 60 -7.5 18.5
02:40 1025 30.27 854 25.22 -0.6 31 59 -7.6 18.3
02:45 1025 30.27 854 25.22 -0.5 31 59 -7.7 18.2
02:50 1025 30.27 855 25.25 -0.6 30.9 60 -7.4 18.7
02:55 1025 30.27 855 25.25 -0.8 30.6 61 -7.5 18.6
03:00 1025 30.27 855 25.25 -1.1 29.9 63 -7.3 18.9
03:05 1025 30.27 855 25.25 -1.1 30 61 -7.6 18.3
03:10 1025 30.27 855 25.25 -1.1 30 62 -7.5 18.6
03:15 1026 30.3 855 25.25 -1.2 29.8 63 -7.4 18.7
03:20 1026 30.3 855 25.25 -1.2 29.8 63 -7.4 18.7
03:25 1026 30.3 855 25.25 -1.2 29.9 63 -7.4 18.7
03:30 1026 30.3 855 25.25 -1.2 29.9 63 -7.3 18.9
03:35 1026 30.3 855 25.25 -1.2 29.9 63 -7.4 18.7
03:40 1026 30.3 855 25.25 -0.9 30.4 60 -7.6 18.3
03:45 1025 30.27 855 25.25 -0.7 30.7 61 -7.3 18.9
03:50 1025 30.27 855 25.25 -0.8 30.6 62 -7.3 18.9
03:55 1025 30.27 854 25.22 -0.9 30.3 62 -7.2 19
04:00 1025 30.27 854 25.22 -1.2 29.9 65 -7 19.5
04:05 1025 30.27 854 25.22 -1.4 29.5 65 -7.2 19
04:10 1025 30.27 854 25.22 -1.2 29.9 64 -7.2 19
04:15 1025 30.27 854 25.22 -1.4 29.6 64 -7.4 18.7
04:20 1025 30.27 855 25.25 -1.3 29.6 64 -7.4 18.7
04:25 1025 30.27 855 25.25 -1.2 29.8 62 -7.5 18.5
04:30 1025 30.27 855 25.25 -1.2 29.9 65 -6.9 19.6
04:35 1025 30.27 855 25.25 -1.5 29.3 66 -7.1 19.2
04:40 1025 30.27 855 25.25 -1.6 29.2 67 -6.9 19.5
04:45 1025 30.27 855 25.25 -1.5 29.3 66 -7 19.4
04:50 1025 30.27 855 25.25 -1.5 29.3 67 -6.9 19.5
04:55 1025 30.27 854 25.22 -1.6 29.1 68 -6.8 19.7
05:00 1025 30.27 854 25.22 -1.7 29 68 -6.8 19.8
05:05 1025 30.27 854 25.22 -1.8 28.8 68 -6.9 19.5
05:10 1025 30.27 854 25.22 -1.7 29 67 -7.1 19.2
05:15 1025 30.27 854 25.22 -1.5 29.3 65 -7.2 19
05:20 1025 30.27 854 25.22 -1.4 29.5 64 -7.4 18.6
05:25 1025 30.27 855 25.25 -1.2 29.8 64 -7.1 19.3
05:30 1025 30.27 855 25.25 -1.2 29.9 64 -7.1 19.2
05:35 1025 30.27 855 25.25 -1.1 30 64 -7.2 19.1
05:40 1025 30.27 855 25.25 -1 30.1 63 -7.1 19.2
05:45 1025 30.27 855 25.25 -0.9 30.3 63 -7.2 19.1
05:50 1025 30.27 855 25.25 -0.8 30.6 63 -6.9 19.5
05:55 1025 30.27 855 25.25 -0.8 30.6 63 -7 19.4
06:00 1025 30.27 855 25.25 -0.8 30.5 65 -6.6 20.2
06:05 1025 30.27 854 25.22 -0.8 30.5 63 -7.1 19.3
06:10 1025 30.27 854 25.22 -0.5 31.1 61 -7.1 19.3
06:15 1025 30.27 855 25.25 -0.6 31 62 -6.9 19.6
06:20 1025 30.27 854 25.22 -0.8 30.6 64 -6.8 19.8
06:25 1025 30.27 855 25.25 -0.9 30.4 63 -7 19.4
06:30 1025 30.27 855 25.25 -0.8 30.5 62 -7.1 19.2
06:35 1025 30.27 854 25.22 -0.7 30.8 63 -6.9 19.6
06:40 1025 30.27 854 25.22 -0.7 30.8 62 -7 19.4
06:45 1025 30.27 854 25.22 -0.6 30.8 62 -6.9 19.5
06:50 1025 30.27 854 25.22 -0.7 30.8 62 -7 19.3
06:55 1025 30.27 854 25.22 -0.4 31.3 60 -7.1 19.1
07:00 1025 30.27 854 25.22 -0.1 31.9 59 -7.1 19.2
07:05 1025 30.27 854 25.22 0.1 32.2 58 -7.1 19.2
07:10 1025 30.27 854 25.22 0.2 32.4 57 -7.2 19
07:15 1024 30.24 854 25.22 0.3 32.6 58 -7.1 19.2
07:20 1024 30.24 853 25.19 0.3 32.6 57 -7.3 18.9
07:25 1024 30.24 853 25.19 0.5 32.9 56 -7.2 19
07:30 1024 30.24 853 25.19 0.5 32.9 56 -7.2 19
07:35 1024 30.24 853 25.19 0.5 33 56 -7.2 19.1
07:40 1024 30.24 853 25.19 0.6 33 57 -7.1 19.3
07:45 1024 30.24 853 25.19 0.5 32.9 56 -7.2 19
07:50 1024 30.24 853 25.19 0.6 33.1 56 -7.3 18.9
07:55 1024 30.24 854 25.22 0.7 33.2 55 -7.3 18.8
08:00 1024 30.24 854 25.22 0.8 33.4 54 -7.5 18.5
08:05 1024 30.24 854 25.22 0.9 33.6 52 -7.8 17.9
08:10 1024 30.24 854 25.22 1.2 34.1 51 -7.8 17.9
08:15 1025 30.27 854 25.22 1.3 34.4 51 -7.7 18.1
08:20 1025 30.27 854 25.22 1.4 34.5 51 -7.8 18
08:25 1025 30.27 854 25.22 1.4 34.5 53 -7.1 19.2
08:30 1024 30.24 854 25.22 0.6 33.1 58 -6.7 20
08:35 1024 30.24 854 25.22 0.1 32.1 60 -6.9 19.6
08:40 1025 30.27 854 25.22 0.2 32.4 59 -6.8 19.8
08:45 1024 30.24 854 25.22 0.5 32.9 59 -6.7 20
08:50 1024 30.24 853 25.19 0.3 32.6 59 -6.7 20
08:55 1024 30.24 853 25.19 0.2 32.4 60 -6.7 19.9
09:00 1024 30.24 853 25.19 0.1 32.2 60 -6.7 20
09:05 1024 30.24 853 25.19 0.2 32.3 59 -6.8 19.7
09:10 1024 30.24 853 25.19 0.5 32.9 57 -7 19.4
09:15 1024 30.24 854 25.22 0.9 33.6 56 -6.9 19.6
09:20 1025 30.27 854 25.22 1.4 34.5 55 -6.8 19.8
09:25 1025 30.27 854 25.22 2.2 36 51 -6.9 19.5
09:30 1025 30.27 854 25.22 2.6 36.7 52 -6.2 20.8
09:35 1025 30.27 854 25.22 2.6 36.7 50 -6.7 20
09:40 1025 30.27 854 25.22 2.9 37.2 50 -6.6 20.1
09:45 1025 30.27 854 25.22 2.8 37.1 51 -6.4 20.5
09:50 1024 30.24 854 25.22 3 37.4 50 -6.5 20.3
09:55 1024 30.24 854 25.22 3 37.5 49 -6.6 20.1
10:00 1024 30.24 854 25.22 3.3 38 46 -7.1 19.1
10:05 1025 30.27 854 25.22 3.5 38.4 46 -6.9 19.5
10:10 1025 30.27 854 25.22 4.1 39.3 43 -7.3 18.9
10:15 1025 30.27 854 25.22 4.4 40 42 -7.5 18.5
10:20 1025 30.27 854 25.22 4.7 40.5 42 -7.3 18.9
10:25 1025 30.27 854 25.22 4.9 40.7 41 -7.3 18.8
10:30 1025 30.27 854 25.22 5.1 41.1 40 -7.5 18.5
10:35 1025 30.27 854 25.22 5.4 41.8 43 -6.2 20.8
10:40 1024 30.24 854 25.22 5.9 42.6 43 -5.7 21.8
10:45 1024 30.24 854 25.22 6.1 43 45 -5 22.9
10:50 1024 30.24 854 25.22 5.4 41.7 47 -5.1 22.8
10:55 1024 30.24 853 25.19 4.9 40.9 46 -5.6 21.8
11:00 1024 30.24 853 25.19 5 41 46 -5.7 21.8
11:05 1024 30.24 853 25.19 5 41 48 -5.1 22.7
11:10 1024 30.24 853 25.19 4.9 40.8 47 -5.6 22
11:15 1024 30.24 853 25.19 4.9 40.9 46 -5.8 21.5
11:20 1024 30.24 853 25.19 4.9 40.8 44 -6.3 20.7
11:25 1024 30.24 853 25.19 5.4 41.7 42 -6.6 20.1
11:30 1024 30.24 853 25.19 6.2 43.1 39 -6.9 19.6
11:35 1024 30.24 853 25.19 7 44.6 36 -7.1 19.3
11:40 1024 30.24 853 25.19 6.7 44.1 41 -5.7 21.7
11:45 1024 30.24 853 25.19 6.7 44.1 39 -6.4 20.4
11:50 1024 30.24 853 25.19 6.2 43.2 40 -6.3 20.7
11:55 1024 30.24 853 25.19 7 44.5 37 -6.7 20
12:00 1024 30.24 853 25.19 7.2 45 37 -6.5 20.3
12:05 1024 30.24 853 25.19 7.2 44.9 38 -6.1 21.1
12:10 1024 30.24 853 25.19 7.4 45.3 36 -6.7 19.9
12:15 1024 30.24 853 25.19 8.1 46.7 34 -6.8 19.8
12:20 1024 30.24 853 25.19 8 46.4 36 -6.3 20.7
12:25 1024 30.24 853 25.19 8.1 46.7 35 -6.3 20.6
12:30 1024 30.24 853 25.19 8.5 47.3 34 -6.4 20.5
12:35 1024 30.24 853 25.19 8.2 46.7 34 -6.6 20.1
12:40 1024 30.24 853 25.19 7.5 45.5 35 -7.1 19.2
12:45 1024 30.24 853 25.19 7.5 45.4 33 -7.6 18.4
12:50 1024 30.24 853 25.19 7.7 45.8 34 -7.4 18.7
12:55 1024 30.24 853 25.19 8.9 48 30 -7.7 18.2
13:00 1024 30.24 853 25.19 9.7 49.4 27 -8.4 16.9
13:05 1024 30.24 853 25.19 9 48.3 29 -8 17.6
13:10 1023 30.21 853 25.19 9.1 48.3 29 -7.9 17.7
13:15 1023 30.21 853 25.19 8.6 47.4 29 -8.4 16.8
13:20 1023 30.21 852 25.16 8.4 47 31 -7.6 18.3
13:25 1023 30.21 852 25.16 8.9 48.1 30 -7.8 18
13:30 1023 30.21 852 25.16 8.5 47.4 30 -8.2 17.3
13:35 1023 30.21 852 25.16 9.4 48.8 29 -7.7 18.1
13:40 1023 30.21 852 25.16 9.8 49.6 28 -7.8 18
13:45 1023 30.21 852 25.16 10.2 50.4 29 -6.9 19.5
13:50 1023 30.21 852 25.16 10.1 50.2 29 -7 19.4
13:55 1023 30.21 852 25.16 9.7 49.4 29 -7.7 18.1
14:00 1023 30.21 852 25.16 11 51.8 27 -7.1 19.2
14:05 1023 30.21 852 25.16 11.8 53.3 29 -5.7 21.8
14:10 1023 30.21 852 25.16 11.3 52.3 27 -6.8 19.7
14:15 1023 30.21 852 25.16 10.6 51.1 29 -6.7 20
14:20 1023 30.21 852 25.16 10.7 51.3 28 -6.9 19.5
14:25 1023 30.21 852 25.16 11.4 52.6 27 -6.7 19.9
14:30 1023 30.21 852 25.16 11.8 53.3 27 -6.7 20
14:35 1023 30.21 852 25.16 11.6 52.8 28 -6.2 20.9
14:40 1023 30.21 852 25.16 11.2 52.2 28 -6.8 19.8
14:45 1022 30.18 852 25.16 10.8 51.5 29 -6.6 20.1
14:50 1022 30.18 852 25.16 10.7 51.3 29 -6.4 20.5
14:55 1022 30.18 851 25.13 11.5 52.7 28 -6.4 20.4
15:00 1022 30.18 851 25.13 11.3 52.3 28 -6.5 20.4
15:05 1022 30.18 851 25.13 11 51.8 29 -6.5 20.3
15:10 1022 30.18 851 25.13 11 51.8 28 -6.9 19.6
15:15 1022 30.18 851 25.13 11.4 52.6 27 -6.8 19.8
15:20 1022 30.18 851 25.13 11.4 52.6 29 -6 21.2
15:25 1022 30.18 851 25.13 11.8 53.2 29 -5.8 21.5
15:30 1022 30.18 851 25.13 12.2 53.9 28 -5.8 21.5
15:35 1022 30.18 851 25.13 12.6 54.7 28 -5.3 22.4
15:40 1021 30.15 851 25.13 13.3 55.9 27 -5.2 22.7
15:45 1021 30.15 851 25.13 13.3 55.9 27 -5.2 22.6
15:50 1021 30.15 851 25.13 13.2 55.8 27 -5.2 22.6
15:55 1021 30.15 850 25.1 12.6 54.6 27 -6.1 20.9
16:00 1021 30.15 850 25.1 12.4 54.3 27 -5.9 21.4
16:05 1021 30.15 850 25.1 12.5 54.4 27 -6.1 21.1
16:10 1021 30.15 850 25.1 12.4 54.4 26 -6.4 20.5
16:15 1021 30.15 850 25.1 12.8 55 27 -5.7 21.8
16:20 1021 30.15 850 25.1 12.7 54.8 27 -5.7 21.7
16:25 1021 30.15 850 25.1 12.6 54.7 26 -6.2 20.8
16:30 1021 30.15 850 25.1 12.7 54.8 27 -6 21.3
16:35 1021 30.15 850 25.1 13 55.5 26 -6.1 21
16:40 1021 30.15 850 25.1 13.2 55.7 26 -5.9 21.4
16:45 1021 30.15 850 25.1 13.7 56.7 26 -5.3 22.5
16:50 1021 30.15 850 25.1 14.3 57.7 25 -5.2 22.6
16:55 1021 30.15 850 25.1 13.7 56.6 30 -3.5 25.7
17:00 1021 30.15 850 25.1 12.8 55 30 -4.3 24.3
17:05 1021 30.15 850 25.1 12.3 54.2 32 -4 24.9
17:10 1021 30.15 850 25.1 12 53.5 33 -3.9 25
17:15 1021 30.15 850 25.1 12 53.5 32 -4.3 24.2
17:20 1021 30.15 850 25.1 11.5 52.7 33 -4.3 24.2
17:25 1021 30.15 850 25.1 11.2 52.1 32 -4.8 23.4
17:30 1021 30.15 850 25.1 11.4 52.5 32 -4.8 23.3
17:35 1021 30.15 850 25.1 11.2 52.2 31 -5.3 22.5
17:40 1021 30.15 850 25.1 10.7 51.3 34 -4.6 23.8
17:45 1021 30.15 850 25.1 11 51.8 32 -5 23
17:50 1021 30.15 850 25.1 11.4 52.6 31 -5.2 22.7
17:55 1021 30.15 850 25.1 11.5 52.7 29 -5.7 21.7
18:00 1021 30.15 850 25.1 11.3 52.4 30 -5.4 22.3
18:05 1021 30.15 850 25.1 10.9 51.6 31 -5.4 22.3
18:10 1021 30.15 850 25.1 10.6 51.1 32 -5.4 22.3
18:15 1021 30.15 850 25.1 10 50 36 -4.5 23.9
18:20 1021 30.15 850 25.1 9.4 48.9 39 -3.9 24.9
18:25 1021 30.15 850 25.1 8.7 47.7 40 -4 24.8
18:30 1021 30.15 850 25.1 8.5 47.2 41 -3.9 25
18:35 1021 30.15 850 25.1 8.1 46.5 46 -2.9 26.8
18:40 1021 30.15 850 25.1 7.4 45.2 49 -2.5 27.4
18:45 1021 30.15 850 25.1 6.7 44.1 52 -2.4 27.8
18:50 1021 30.15 850 25.1 6.7 44.1 52 -2.3 27.8
18:55 1021 30.15 850 25.1 6.5 43.7 54 -2.1 28.3
19:00 1021 30.15 850 25.1 6 42.9 56 -2 28.4
19:05 1021 30.15 850 25.1 5.8 42.4 57 -2.1 28.2
19:10 1021 30.15 850 25.1 5.7 42.3 56 -2.3 27.9
19:15 1021 30.15 850 25.1 5.6 42.2 57 -2.1 28.2
19:20 1021 30.15 850 25.1 5.4 41.7 57 -2.4 27.6
19:25 1021 30.15 850 25.1 5.2 41.3 57 -2.6 27.3
19:30 1021 30.15 850 25.1 5.2 41.3 55 -3 26.6
19:35 1021 30.15 850 25.1 5.3 41.5 57 -2.5 27.4
19:40 1020 30.12 850 25.1 5.2 41.4 57 -2.7 27.1
19:45 1020 30.12 849 25.07 5.4 41.7 56 -2.7 27.1
19:50 1020 30.12 849 25.07 5.4 41.7 54 -3.1 26.5
19:55 1020 30.12 849 25.07 5.5 41.8 52 -3.6 25.5
20:00 1020 30.12 849 25.07 5.7 42.2 48 -4.6 23.8
20:05 1020 30.12 849 25.07 5.8 42.5 48 -4.4 24
20:10 1020 30.12 849 25.07 5.9 42.6 46 -4.8 23.3
20:15 1020 30.12 849 25.07 6.2 43.1 41 -6.2 20.9
20:20 1020 30.12 849 25.07 6.7 44 39 -6.3 20.7
20:25 1020 30.12 849 25.07 6.8 44.2 39 -6.2 20.8
20:30 1020 30.12 849 25.07 6.9 44.3 38 -6.3 20.6
20:35 1020 30.12 849 25.07 6.9 44.5 38 -6.5 20.3
20:40 1020 30.12 849 25.07 6.9 44.4 37 -6.9 19.6
20:45 1020 30.12 849 25.07 7.1 44.7 35 -7.3 18.9
20:50 1020 30.12 849 25.07 7.2 44.9 35 -7.1 19.2
20:55 1020 30.12 849 25.07 7.1 44.8 36 -7.1 19.2
21:00 1020 30.12 849 25.07 7 44.5 38 -6.4 20.6
21:05 1020 30.12 849 25.07 6.6 43.9 38 -6.7 20
21:10 1020 30.12 849 25.07 6.5 43.8 38 -6.8 19.8
21:15 1020 30.12 849 25.07 6.5 43.7 38 -6.9 19.6
21:20 1020 30.12 849 25.07 6.5 43.7 41 -5.7 21.7
21:25 1020 30.12 849 25.07 6 42.9 42 -5.9 21.3
21:30 1020 30.12 849 25.07 5.8 42.5 44 -5.4 22.3
21:35 1020 30.12 849 25.07 5.7 42.3 44 -5.5 22
21:40 1020 30.12 849 25.07 5.6 42.2 43 -6.1 21.1
21:45 1020 30.12 849 25.07 5.8 42.5 42 -6.2 20.8
21:50 1020 30.12 849 25.07 6 42.9 45 -5.1 22.8
21:55 1020 30.12 849 25.07 5.6 42.1 48 -4.6 23.7
22:00 1020 30.12 849 25.07 5.4 41.7 48 -4.8 23.4
22:05 1020 30.12 849 25.07 5.4 41.8 51 -4 24.8
22:10 1020 30.12 849 25.07 5.4 41.6 52 -3.6 25.5
22:15 1020 30.12 849 25.07 5 41 52 -3.9 25
22:20 1020 30.12 849 25.07 5.1 41.2 51 -4.2 24.5
22:25 1020 30.12 849 25.07 5.3 41.5 49 -4.7 23.5
22:30 1019 30.09 849 25.07 5.7 42.3 48 -4.4 24.1
22:35 1019 30.09 849 25.07 5.7 42.3 48 -4.3 24.2
22:40 1019 30.09 848 25.04 5.8 42.4 47 -4.6 23.7
22:45 1019 30.09 848 25.04 5.7 42.3 48 -4.5 23.9
22:50 1019 30.09 848 25.04 5.6 42 51 -3.6 25.4
22:55 1019 30.09 848 25.04 5.3 41.6 49 -4.7 23.6
23:00 1019 30.09 848 25.04 5.2 41.4 53 -3.6 25.6
23:05 1019 30.09 848 25.04 5.1 41.2 48 -5 23
23:10 1019 30.09 848 25.04 5.5 41.9 49 -4.3 24.2
23:15 1019 30.09 848 25.04 5.3 41.5 49 -4.5 23.8
23:20 1019 30.09 849 25.07 5.1 41.2 47 -5.3 22.5
23:25 1019 30.09 849 25.07 5.5 41.8 49 -4.3 24.2
23:30 1019 30.09 849 25.07 5.1 41.1 54 -3.4 25.8
23:35 1019 30.09 849 25.07 4.8 40.6 54 -3.8 25.1
23:40 1019 30.09 848 25.04 4.9 40.9 53 -3.9 25
23:45 1019 30.09 848 25.04 5.1 41.1 51 -4.3 24.3
23:50 1019 30.09 848 25.04 5.2 41.3 52 -3.9 25.1
23:55 1019 30.09 848 25.04 5 41 52 -3.9 25
24:00 1019 30.09 848 25.04 4.8 40.6 52 -4.2 24.4